Time;durP1;ratioP1;P1;durP2;ratioP2;P2;SDS_P1;SDS_P2;PMS_P1;PMS_P2;Temp;Humidity;BMP_temperature;BMP_pressure;BME280_temperature;BME280_humidity;BME280_pressure;Samples;Min_cycle;Max_cycle;Signal;HPM_P1;HPM_P2
2022/06/17 00:01:36;;;;;;;2.40;1.67;;;19.80;69.50;;;;;;5073930;28;20205;-80
2022/06/17 00:04:01;;;;;;;2.63;2.08;;;19.70;68.90;;;;;;5073731;28;20173;-81
2022/06/17 00:06:34;;;;;;;2.72;1.60;;;19.70;69.50;;;;;;5071656;28;20180;-79
2022/06/17 00:09:05;;;;;;;1.67;1.58;;;19.60;71.10;;;;;;5072887;28;20176;-81
2022/06/17 00:11:37;;;;;;;1.80;1.63;;;19.60;70.70;;;;;;5070070;28;20196;-81
2022/06/17 00:14:09;;;;;;;2.22;1.50;;;19.50;70.20;;;;;;5072743;28;20180;-79
2022/06/17 00:16:35;;;;;;;3.08;1.85;;;19.50;70.50;;;;;;5064299;28;20792;-84
2022/06/17 00:19:00;;;;;;;1.67;1.50;;;19.50;70.80;;;;;;5073808;28;22133;-80
2022/06/17 00:21:35;;;;;;;2.50;1.70;;;19.40;70.90;;;;;;5069572;28;20287;-84
2022/06/17 00:24:06;;;;;;;2.90;1.88;;;19.40;72.20;;;;;;5072555;28;20180;-81
2022/06/17 00:26:31;;;;;;;5.63;1.75;;;19.30;71.30;;;;;;5070561;28;20173;-82
2022/06/17 00:28:57;;;;;;;2.72;1.90;;;19.30;71.70;;;;;;5072301;28;20328;-84
2022/06/17 00:31:23;;;;;;;3.78;1.92;;;19.20;71.90;;;;;;5070131;28;20207;-83
2022/06/17 00:33:50;;;;;;;1.88;1.77;;;19.10;72.00;;;;;;5072254;28;20573;-81
2022/06/17 00:36:20;;;;;;;2.15;1.77;;;19.10;72.30;;;;;;5072083;28;20304;-81
2022/06/17 00:38:46;;;;;;;3.22;2.08;;;19.00;73.20;;;;;;5070340;28;20236;-79
2022/06/17 00:41:22;;;;;;;2.38;1.80;;;19.00;73.20;;;;;;5069747;28;20200;-85
2022/06/17 00:43:47;;;;;;;2.88;2.00;;;18.90;73.60;;;;;;5063460;28;20177;-83
2022/06/17 00:46:21;;;;;;;2.65;2.03;;;18.90;73.70;;;;;;5068623;28;20624;-83
2022/06/17 00:49:07;;;;;;;2.53;1.92;;;18.80;74.00;;;;;;5069581;28;20195;-83
2022/06/17 00:51:40;;;;;;;3.05;1.90;;;18.70;76.00;;;;;;5071597;28;20196;-82
2022/06/17 00:54:25;;;;;;;4.03;1.90;;;18.70;75.50;;;;;;5090345;28;20185;-81
2022/06/17 00:56:52;;;;;;;2.60;1.80;;;18.60;76.60;;;;;;5084124;28;20199;-81
2022/06/17 00:59:18;;;;;;;2.40;1.80;;;18.60;75.60;;;;;;5075309;28;20203;-80
2022/06/17 01:01:46;;;;;;;3.10;1.88;;;18.60;76.00;;;;;;5072039;28;20208;-77
2022/06/17 01:04:17;;;;;;;2.08;1.80;;;18.60;76.50;;;;;;5071149;28;20550;-84
2022/06/17 01:06:49;;;;;;;2.28;2.08;;;18.50;77.40;;;;;;5081693;28;20193;-84
2022/06/17 01:12:11;;;;;;;2.95;2.10;;;18.50;79.80;;;;;;5073260;28;20207;-84
2022/06/17 01:14:40;;;;;;;2.50;1.55;;;18.40;79.30;;;;;;5071325;28;20184;-76
2022/06/17 01:17:11;;;;;;;4.63;2.22;;;18.30;79.20;;;;;;5071563;28;20177;-78
2022/06/17 01:19:44;;;;;;;2.58;2.10;;;18.30;79.40;;;;;;5067234;28;20200;-84
2022/06/17 01:22:42;;;;;;;2.63;1.85;;;18.20;80.20;;;;;;5072312;28;20200;-82
2022/06/17 01:25:12;;;;;;;2.58;2.13;;;18.20;82.80;;;;;;5069710;28;20196;-82
2022/06/17 01:27:53;;;;;;;2.47;2.10;;;18.10;81.10;;;;;;5060030;28;20172;-80
2022/06/17 01:30:33;;;;;;;2.50;1.63;;;18.10;82.90;;;;;;5087185;28;20217;-81
2022/06/17 01:33:19;;;;;;;2.50;2.00;;;18.00;81.80;;;;;;5068782;28;20215;-81
2022/06/17 01:36:19;;;;;;;2.45;1.90;;;17.90;84.80;;;;;;5079511;28;20184;-80
2022/06/17 01:38:53;;;;;;;3.92;1.80;;;17.90;83.70;;;;;;5067239;28;20556;-79
2022/06/17 01:41:23;;;;;;;3.72;1.90;;;17.90;83.60;;;;;;5068617;28;20201;-83
2022/06/17 01:43:57;;;;;;;3.65;1.65;;;17.80;83.00;;;;;;5066740;28;20198;-78
2022/06/17 01:46:32;;;;;;;2.88;1.80;;;17.80;84.30;;;;;;5062656;28;20195;-82
2022/06/17 01:49:05;;;;;;;2.05;1.65;;;17.80;85.00;;;;;;5067706;28;20211;-78
2022/06/17 01:51:34;;;;;;;2.38;2.10;;;17.80;85.20;;;;;;5070144;28;20254;-81
2022/06/17 01:54:07;;;;;;;2.85;1.80;;;17.80;85.20;;;;;;5081073;28;20190;-82
2022/06/17 01:56:39;;;;;;;3.55;1.80;;;17.70;85.80;;;;;;5069260;28;20181;-80
2022/06/17 01:59:16;;;;;;;2.30;1.77;;;17.70;86.90;;;;;;5066803;28;20200;-81
2022/06/17 02:01:47;;;;;;;2.30;1.92;;;17.70;87.90;;;;;;5068457;28;20223;-83
2022/06/17 02:04:21;;;;;;;2.10;1.73;;;17.70;87.00;;;;;;5084040;28;20200;-77
2022/06/17 02:06:52;;;;;;;2.03;1.70;;;17.70;87.50;;;;;;5070613;28;20236;-80
2022/06/17 02:09:18;;;;;;;2.58;1.80;;;17.60;88.00;;;;;;5073634;28;20380;-80
2022/06/17 02:11:47;;;;;;;3.75;2.00;;;17.60;86.90;;;;;;5068173;28;20212;-79
2022/06/17 02:14:13;;;;;;;2.90;1.77;;;17.60;88.10;;;;;;5067776;28;20184;-83
2022/06/17 02:16:53;;;;;;;2.30;1.77;;;17.60;87.70;;;;;;5067300;28;20436;-80
2022/06/17 02:19:23;;;;;;;2.17;1.70;;;17.60;89.30;;;;;;5077670;28;20168;-82
2022/06/17 02:21:58;;;;;;;1.50;1.40;;;17.60;88.20;;;;;;5073569;28;20208;-82
2022/06/17 02:24:25;;;;;;;1.80;1.60;;;17.60;89.00;;;;;;5069005;28;20201;-76
2022/06/17 02:26:54;;;;;;;2.22;1.88;;;17.60;88.80;;;;;;5078402;28;20185;-83
2022/06/17 02:29:22;;;;;;;2.08;1.83;;;17.60;89.90;;;;;;5082043;28;20191;-81
2022/06/17 02:31:47;;;;;;;2.13;1.75;;;17.70;89.60;;;;;;5070202;28;20204;-83
2022/06/17 02:34:21;;;;;;;2.13;1.75;;;17.60;89.50;;;;;;5058641;28;20185;-83
2022/06/17 02:36:55;;;;;;;3.15;2.03;;;17.60;90.10;;;;;;5066816;28;20232;-83
2022/06/17 02:39:21;;;;;;;2.53;1.83;;;17.60;90.70;;;;;;5073858;28;20183;-79
2022/06/17 02:41:50;;;;;;;3.25;1.98;;;17.60;90.20;;;;;;5067850;28;20196;-82
2022/06/17 02:44:29;;;;;;;2.20;2.00;;;17.60;90.60;;;;;;5068465;28;20192;-77
2022/06/17 02:46:55;;;;;;;2.28;1.63;;;17.60;91.00;;;;;;5070228;28;20198;-77
2022/06/17 02:49:26;;;;;;;2.53;1.83;;;17.60;90.40;;;;;;5066000;28;20183;-78
2022/06/17 02:51:55;;;;;;;1.75;1.63;;;17.60;90.80;;;;;;5068743;28;20177;-79
2022/06/17 02:54:40;;;;;;;3.55;1.67;;;17.50;90.60;;;;;;5063724;28;20241;-83
2022/06/17 02:57:08;;;;;;;2.03;1.50;;;17.60;91.60;;;;;;5070318;28;20294;-83
2022/06/17 02:59:44;;;;;;;3.58;2.03;;;17.50;91.00;;;;;;5072566;28;20233;-81
2022/06/17 03:02:33;;;;;;;2.28;1.88;;;17.50;91.70;;;;;;5069025;28;20216;-80
2022/06/17 03:04:59;;;;;;;2.25;1.77;;;17.50;91.90;;;;;;5068720;28;20205;-82
2022/06/17 03:07:31;;;;;;;2.17;1.70;;;17.50;91.20;;;;;;5069235;28;20259;-78
2022/06/17 03:09:59;;;;;;;2.58;1.95;;;17.40;91.50;;;;;;5080972;28;20215;-82
2022/06/17 03:12:31;;;;;;;3.75;2.08;;;17.40;91.30;;;;;;5069778;28;20267;-82
2022/06/17 03:15:11;;;;;;;3.33;1.95;;;17.30;92.20;;;;;;5070292;28;20271;-81
2022/06/17 03:17:41;;;;;;;2.60;1.90;;;17.30;91.70;;;;;;5066522;28;20200;-83
2022/06/17 03:20:19;;;;;;;2.17;1.80;;;17.20;92.00;;;;;;5070165;28;20177;-79
2022/06/17 03:22:48;;;;;;;3.20;2.15;;;17.10;92.30;;;;;;5063399;28;20205;-79
2022/06/17 03:25:23;;;;;;;2.35;2.00;;;17.10;92.10;;;;;;5066571;28;20430;-80
2022/06/17 03:27:52;;;;;;;2.50;2.03;;;17.10;92.80;;;;;;5071366;28;20183;-82
2022/06/17 03:30:24;;;;;;;4.00;2.22;;;17.10;92.50;;;;;;5086330;28;20208;-82
2022/06/17 03:33:01;;;;;;;3.22;2.42;;;17.10;93.00;;;;;;5058929;28;22222;-76
2022/06/17 03:35:31;;;;;;;2.42;2.22;;;17.10;93.20;;;;;;5074958;28;20241;-81
2022/06/17 03:38:31;;;;;;;3.28;2.60;;;17.10;92.90;;;;;;5073737;28;20268;-75
2022/06/17 03:41:04;;;;;;;2.67;1.90;;;17.10;94.10;;;;;;5065812;28;20207;-76
2022/06/17 03:43:36;;;;;;;2.95;2.17;;;17.10;93.20;;;;;;5075249;28;20214;-79
2022/06/17 03:46:07;;;;;;;3.08;2.15;;;17.10;93.10;;;;;;5071705;28;20173;-83
2022/06/17 03:48:38;;;;;;;3.25;2.00;;;17.10;93.30;;;;;;5073503;28;20234;-82
2022/06/17 03:51:04;;;;;;;3.55;1.80;;;17.10;93.10;;;;;;5070796;28;20196;-79
2022/06/17 03:53:31;;;;;;;1.95;1.75;;;17.10;93.10;;;;;;5071825;28;20195;-80
2022/06/17 03:56:03;;;;;;;27.52;17.83;;;17.10;93.20;;;;;;5072567;28;20168;-82
2022/06/17 03:58:29;;;;;;;49.70;34.65;;;17.10;93.50;;;;;;5074277;28;20188;-82
2022/06/17 04:01:25;;;;;;;18.90;16.52;;;17.10;93.50;;;;;;5073197;28;20181;-77
2022/06/17 04:03:56;;;;;;;10.75;8.93;;;17.10;94.80;;;;;;5085595;28;20211;-76
2022/06/17 04:06:38;;;;;;;9.57;6.25;;;17.10;94.10;;;;;;5084841;28;20226;-78
2022/06/17 04:09:18;;;;;;;5.22;3.92;;;17.10;94.80;;;;;;5085756;28;20192;-83
2022/06/17 04:11:50;;;;;;;4.22;3.03;;;17.10;94.90;;;;;;5072982;28;20199;-79
2022/06/17 04:14:19;;;;;;;3.42;2.55;;;17.10;94.70;;;;;;5087873;28;20191;-80
2022/06/17 04:16:56;;;;;;;2.42;2.05;;;17.10;94.80;;;;;;5076057;28;20203;-82
2022/06/17 04:19:25;;;;;;;3.00;2.30;;;17.10;95.00;;;;;;5072773;28;20246;-82
2022/06/17 04:21:58;;;;;;;2.42;1.90;;;17.10;95.00;;;;;;5074946;28;20204;-82
2022/06/17 04:24:29;;;;;;;3.58;1.90;;;17.10;95.10;;;;;;5066606;28;20222;-74
2022/06/17 04:27:06;;;;;;;2.45;1.98;;;17.10;95.40;;;;;;5070918;28;21442;-82
2022/06/17 04:29:39;;;;;;;2.28;1.77;;;17.20;95.70;;;;;;5068528;28;20243;-82
2022/06/17 04:32:20;;;;;;;4.80;1.83;;;17.20;96.00;;;;;;5074539;28;20183;-82
2022/06/17 04:34:45;;;;;;;3.05;2.25;;;17.30;96.40;;;;;;5063406;28;20207;-78
2022/06/17 04:37:19;;;;;;;3.33;2.17;;;17.30;95.60;;;;;;5070835;28;20177;-78
2022/06/17 04:39:46;;;;;;;2.92;2.00;;;17.40;95.90;;;;;;5072805;28;20195;-76
2022/06/17 04:42:19;;;;;;;3.08;2.00;;;17.40;95.90;;;;;;5067136;28;20212;-79
2022/06/17 04:44:45;;;;;;;2.58;1.98;;;17.50;96.30;;;;;;5068797;28;20169;-79
2022/06/17 04:47:13;;;;;;;2.95;2.15;;;17.50;95.90;;;;;;5072583;28;20193;-81
2022/06/17 04:49:52;;;;;;;3.63;2.10;;;17.60;96.20;;;;;;5071017;28;20173;-82
2022/06/17 04:52:32;;;;;;;2.47;2.17;;;17.60;96.70;;;;;;5071001;28;20253;-76
2022/06/17 04:54:59;;;;;;;2.53;2.08;;;17.70;96.60;;;;;;5072207;28;20204;-82
2022/06/17 04:57:30;;;;;;;2.75;1.90;;;17.70;96.10;;;;;;5073189;28;20184;-82
2022/06/17 04:59:59;;;;;;;2.67;1.80;;;17.80;96.40;;;;;;5070882;28;20657;-83
2022/06/17 05:02:31;;;;;;;3.17;1.90;;;17.90;96.20;;;;;;5087581;28;20208;-82
2022/06/17 05:05:04;;;;;;;3.15;1.98;;;17.90;96.50;;;;;;5069346;28;20188;-82
2022/06/17 05:07:43;;;;;;;2.53;2.10;;;18.00;96.70;;;;;;5086549;28;20261;-81
2022/06/17 05:10:16;;;;;;;2.30;1.90;;;18.00;97.20;;;;;;5071793;28;20207;-81
2022/06/17 05:13:12;;;;;;;2.33;1.90;;;18.10;96.90;;;;;;5073413;28;20180;-82
2022/06/17 05:15:41;;;;;;;2.20;1.90;;;18.10;97.20;;;;;;5075172;28;20185;-78
2022/06/17 05:18:07;;;;;;;2.35;1.80;;;18.20;97.10;;;;;;5070751;28;20183;-79
2022/06/17 05:20:32;;;;;;;2.50;2.10;;;18.20;96.90;;;;;;5070545;28;20283;-81
2022/06/17 05:23:02;;;;;;;3.13;2.00;;;18.20;96.90;;;;;;5070916;28;20200;-80
2022/06/17 05:25:39;;;;;;;3.10;1.77;;;18.30;97.50;;;;;;5083733;28;20172;-78
2022/06/17 05:28:06;;;;;;;3.58;2.10;;;18.40;97.60;;;;;;5071139;28;20258;-75
2022/06/17 05:30:37;;;;;;;4.93;1.88;;;18.40;97.40;;;;;;5067622;28;20550;-80
2022/06/17 05:33:03;;;;;;;2.83;1.88;;;18.50;97.70;;;;;;5074693;28;20208;-80
2022/06/17 05:35:29;;;;;;;3.53;1.92;;;18.50;97.20;;;;;;5070164;28;20187;-75
2022/06/17 05:37:55;;;;;;;3.10;1.70;;;18.60;97.30;;;;;;5067721;28;20259;-78
2022/06/17 05:40:23;;;;;;;3.10;2.13;;;18.70;97.30;;;;;;5068224;28;20247;-80
2022/06/17 05:42:52;;;;;;;1.70;1.60;;;18.80;97.40;;;;;;5069823;28;20196;-80
2022/06/17 05:45:24;;;;;;;2.65;2.00;;;18.80;97.40;;;;;;5068733;28;20176;-78
2022/06/17 05:47:50;;;;;;;2.83;1.83;;;18.90;97.60;;;;;;5066075;28;20177;-80
2022/06/17 05:50:17;;;;;;;2.22;1.80;;;19.00;97.30;;;;;;5072068;28;20214;-83
2022/06/17 05:52:51;;;;;;;2.60;1.88;;;19.00;97.40;;;;;;5072075;28;20192;-82
2022/06/17 05:55:17;;;;;;;3.72;1.90;;;19.10;97.70;;;;;;5068692;28;20185;-83
2022/06/17 05:57:42;;;;;;;7.70;2.20;;;19.20;97.30;;;;;;5074100;28;20206;-80
2022/06/17 06:00:11;;;;;;;2.05;1.83;;;19.20;97.20;;;;;;5070466;28;20177;-78
2022/06/17 06:02:37;;;;;;;2.45;1.98;;;19.30;97.20;;;;;;5072622;28;20197;-82
2022/06/17 06:05:06;;;;;;;2.55;1.90;;;19.30;97.20;;;;;;5071811;28;20188;-81
2022/06/17 06:07:31;;;;;;;2.20;1.60;;;19.40;97.40;;;;;;5071609;28;20184;-78
2022/06/17 06:09:57;;;;;;;2.60;1.88;;;19.50;97.50;;;;;;5069611;28;20172;-79
2022/06/17 06:12:53;;;;;;;2.22;1.85;;;19.50;97.60;;;;;;5071468;28;20185;-80
2022/06/17 06:15:14;;;;;;;3.20;1.83;;;19.60;97.70;;;;;;5068227;28;20177;-82
2022/06/17 06:17:39;;;;;;;2.67;1.52;;;19.80;97.70;;;;;;5074353;28;20287;-76
2022/06/17 06:20:08;;;;;;;1.92;1.60;;;19.90;97.70;;;;;;5070817;28;20327;-81
2022/06/17 06:22:36;;;;;;;2.55;1.90;;;20.00;97.70;;;;;;5071817;28;20192;-76
2022/06/17 06:25:05;;;;;;;2.60;1.60;;;20.10;97.80;;;;;;5070994;28;20334;-81
2022/06/17 06:27:33;;;;;;;2.25;1.70;;;20.20;97.70;;;;;;5072342;28;22126;-78
2022/06/17 06:30:01;;;;;;;4.93;2.38;;;20.30;97.50;;;;;;5069581;28;20189;-81
2022/06/17 06:32:27;;;;;;;3.55;2.20;;;20.40;97.50;;;;;;5068853;28;20375;-80
2022/06/17 06:34:52;;;;;;;2.80;2.13;;;20.40;97.30;;;;;;5065084;28;20196;-79
2022/06/17 06:37:21;;;;;;;3.22;1.90;;;20.50;97.30;;;;;;5063582;28;20172;-78
2022/06/17 06:39:49;;;;;;;3.35;1.60;;;20.50;97.30;;;;;;5075477;28;20182;-80
2022/06/17 06:42:14;;;;;;;2.85;1.70;;;20.60;97.30;;;;;;5070047;28;20210;-78
2022/06/17 06:44:43;;;;;;;2.58;1.77;;;20.60;97.20;;;;;;5065670;28;20353;-78
2022/06/17 06:47:14;;;;;;;2.17;1.90;;;20.60;97.00;;;;;;5069637;28;20169;-81
2022/06/17 06:49:47;;;;;;;2.08;1.60;;;20.70;97.00;;;;;;5075925;28;20203;-81
2022/06/17 06:52:13;;;;;;;2.67;1.60;;;20.70;96.80;;;;;;5065047;28;20218;-80
2022/06/17 06:54:40;;;;;;;2.03;1.60;;;20.60;96.60;;;;;;5070434;28;20232;-81
2022/06/17 06:57:08;;;;;;;2.53;1.65;;;20.70;96.60;;;;;;5068203;28;20173;-80
2022/06/17 06:59:34;;;;;;;2.88;1.90;;;20.70;96.70;;;;;;5087104;28;20168;-81
2022/06/17 07:02:02;;;;;;;3.28;1.73;;;20.70;96.60;;;;;;5073792;28;20230;-79
2022/06/17 07:04:29;;;;;;;2.60;1.65;;;20.70;96.40;;;;;;5090887;28;20173;-81
2022/06/17 07:06:57;;;;;;;2.20;1.50;;;20.80;96.40;;;;;;5071128;28;20173;-78
2022/06/17 07:09:25;;;;;;;2.83;1.65;;;20.90;96.40;;;;;;5073389;28;20177;-81
2022/06/17 07:11:51;;;;;;;2.67;1.40;;;20.90;96.20;;;;;;5073861;28;20224;-83
2022/06/17 07:14:18;;;;;;;1.92;1.38;;;21.00;96.10;;;;;;5072269;28;20216;-81
2022/06/17 07:16:44;;;;;;;1.88;1.40;;;21.10;96.10;;;;;;5060251;28;20185;-81
2022/06/17 07:19:16;;;;;;;3.00;1.80;;;21.20;96.10;;;;;;5073441;28;20295;-81
2022/06/17 07:21:42;;;;;;;3.45;1.80;;;21.30;95.80;;;;;;5074653;28;20204;-80
2022/06/17 07:24:07;;;;;;;1.88;1.60;;;21.40;95.70;;;;;;5075499;28;20181;-81
2022/06/17 07:26:33;;;;;;;3.70;1.45;;;21.50;95.50;;;;;;5072333;28;20181;-84
2022/06/17 07:28:58;;;;;;;2.30;1.65;;;21.60;95.20;;;;;;5073560;28;20177;-84
2022/06/17 07:31:25;;;;;;;2.55;1.70;;;21.70;94.90;;;;;;5075739;28;20239;-81
2022/06/17 07:33:51;;;;;;;3.30;1.58;;;21.80;94.90;;;;;;5073087;28;20185;-76
2022/06/17 07:41:55;;;;;;;3.65;1.88;;;22.10;94.20;;;;;;5071751;28;20235;-81
2022/06/17 07:44:24;;;;;;;1.80;1.40;;;22.20;94.20;;;;;;5070732;28;20205;-79
2022/06/17 07:46:52;;;;;;;2.28;1.50;;;22.30;94.00;;;;;;5070649;28;20184;-84
2022/06/17 07:49:20;;;;;;;2.25;1.27;;;22.40;93.30;;;;;;5071873;28;20176;-81
2022/06/17 07:51:48;;;;;;;2.15;1.35;;;22.50;93.30;;;;;;5072037;28;20201;-77
2022/06/17 07:54:15;;;;;;;1.65;1.10;;;22.60;93.20;;;;;;5075004;28;20189;-80
2022/06/17 07:56:45;;;;;;;1.80;1.30;;;22.70;92.90;;;;;;5076868;28;20271;-78
2022/06/17 07:59:14;;;;;;;2.63;1.80;;;22.90;92.30;;;;;;5074165;28;20180;-81
2022/06/17 08:01:39;;;;;;;4.35;1.70;;;23.00;91.50;;;;;;5073449;28;20196;-75
2022/06/17 08:04:07;;;;;;;5.53;2.30;;;23.10;91.70;;;;;;5071771;28;20188;-79
2022/06/17 08:06:33;;;;;;;2.83;1.70;;;23.20;91.80;;;;;;5072400;28;20200;-79
2022/06/17 08:08:59;;;;;;;3.45;1.40;;;23.30;91.30;;;;;;5075354;28;20200;-79
2022/06/17 08:11:25;;;;;;;2.20;1.55;;;23.40;91.10;;;;;;5070492;28;20291;-82
2022/06/17 08:13:50;;;;;;;2.25;1.40;;;23.50;91.00;;;;;;5068913;28;20181;-79
2022/06/17 08:16:18;;;;;;;3.55;1.65;;;23.60;90.80;;;;;;5074281;28;20267;-83
2022/06/17 08:18:44;;;;;;;2.50;1.33;;;23.60;90.70;;;;;;5070988;28;20205;-83
2022/06/17 08:21:11;;;;;;;2.00;1.40;;;23.70;90.70;;;;;;5072357;28;20349;-83
2022/06/17 08:23:36;;;;;;;2.95;1.13;;;23.80;90.50;;;;;;5076932;28;20202;-80
2022/06/17 08:26:03;;;;;;;2.78;1.13;;;24.00;90.10;;;;;;5073203;28;20173;-80
2022/06/17 08:28:31;;;;;;;2.75;1.30;;;24.10;90.00;;;;;;5073537;28;20177;-78
2022/06/17 08:30:58;;;;;;;1.83;1.30;;;24.10;88.70;;;;;;5071297;28;20197;-78
2022/06/17 08:33:29;;;;;;;1.40;1.10;;;24.20;87.80;;;;;;5069411;28;20240;-77
2022/06/17 08:36:01;;;;;;;1.17;0.93;;;24.20;87.50;;;;;;5072378;28;20172;-80
2022/06/17 08:38:32;;;;;;;2.05;1.13;;;24.30;87.00;;;;;;5072639;28;20191;-75
2022/06/17 08:41:04;;;;;;;3.78;1.33;;;24.30;86.50;;;;;;5089859;28;20196;-82
2022/06/17 08:44:02;;;;;;;1.83;1.10;;;24.30;86.40;;;;;;5068430;28;20200;-79
2022/06/17 08:46:39;;;;;;;6.70;1.25;;;24.40;84.80;;;;;;5061947;28;20183;-82
2022/06/17 08:49:43;;;;;;;1.45;1.23;;;24.50;83.10;;;;;;5071123;28;20177;-86
2022/06/17 08:52:33;;;;;;;2.10;1.25;;;24.50;83.50;;;;;;5067448;28;20279;-80
2022/06/17 08:55:19;;;;;;;2.80;1.33;;;24.50;83.20;;;;;;5066415;28;20188;-85
2022/06/17 08:58:06;;;;;;;1.30;1.20;;;24.50;81.80;;;;;;5069037;28;20201;-84
2022/06/17 09:00:37;;;;;;;2.15;1.20;;;24.60;82.40;;;;;;5066612;28;20225;-88
2022/06/17 09:03:11;;;;;;;1.20;1.10;;;24.70;83.20;;;;;;5071088;28;20192;-79
2022/06/17 09:05:46;;;;;;;2.60;1.38;;;24.70;81.20;;;;;;5069455;28;20180;-79
2022/06/17 09:08:27;;;;;;;3.60;1.40;;;24.80;78.50;;;;;;5070203;28;20200;-84
2022/06/17 09:11:11;;;;;;;1.67;1.17;;;24.90;79.90;;;;;;5063294;28;20221;-79
2022/06/17 09:13:58;;;;;;;2.20;1.30;;;24.90;78.20;;;;;;5072886;28;20329;-83
2022/06/17 09:16:29;;;;;;;1.70;1.17;;;25.00;79.40;;;;;;5071062;28;20212;-86
2022/06/17 09:19:04;;;;;;;1.67;1.02;;;25.10;79.60;;;;;;5069577;28;20208;-83
2022/06/17 09:21:52;;;;;;;2.58;1.30;;;25.20;78.40;;;;;;5073834;28;20238;-88
2022/06/17 09:24:28;;;;;;;2.15;1.35;;;25.20;78.30;;;;;;5071461;28;20176;-79
2022/06/17 09:27:06;;;;;;;2.45;1.33;;;25.30;76.50;;;;;;5056910;28;20172;-85
2022/06/17 09:29:44;;;;;;;2.05;1.40;;;25.40;76.40;;;;;;5068623;28;20184;-86
2022/06/17 09:32:24;;;;;;;1.40;1.00;;;25.40;77.20;;;;;;5074691;28;20203;-81
2022/06/17 09:35:17;;;;;;;2.53;1.20;;;25.50;74.80;;;;;;5074265;28;20184;-87
2022/06/17 09:37:47;;;;;;;2.10;1.17;;;25.50;76.50;;;;;;5060024;28;20314;-86
2022/06/17 09:40:24;;;;;;;1.92;1.30;;;25.60;76.00;;;;;;5073976;28;20276;-84
2022/06/17 09:42:56;;;;;;;1.40;1.02;;;25.60;74.40;;;;;;5073451;28;20247;-85
2022/06/17 09:45:31;;;;;;;2.47;1.30;;;25.70;74.50;;;;;;5073882;28;20181;-85
2022/06/17 09:48:01;;;;;;;2.03;1.40;;;25.70;73.30;;;;;;5073876;28;20153;-82
2022/06/17 09:50:38;;;;;;;2.72;1.30;;;25.80;73.30;;;;;;5071887;28;20169;-85
2022/06/17 09:53:19;;;;;;;1.35;0.98;;;25.80;72.30;;;;;;5074529;28;20186;-84
2022/06/17 09:56:07;;;;;;;1.83;1.10;;;25.80;69.00;;;;;;5074694;28;20177;-84
2022/06/17 09:59:00;;;;;;;2.55;1.42;;;25.80;68.40;;;;;;5081490;28;20181;-81
2022/06/17 10:01:43;;;;;;;2.47;1.20;;;25.80;70.80;;;;;;5029430;28;20216;-82
2022/06/17 10:04:11;;;;;;;1.52;1.02;;;25.90;71.40;;;;;;5074884;28;20169;-78
2022/06/17 10:07:16;;;;;;;2.63;0.98;;;26.00;71.00;;;;;;5066365;28;20181;-85
2022/06/17 10:10:13;;;;;;;1.45;0.90;;;26.10;69.80;;;;;;5054408;28;20256;-77
2022/06/17 10:13:17;;;;;;;1.35;1.02;;;26.10;71.00;;;;;;5070049;28;20184;-84
2022/06/17 10:19:10;;;;;;;1.58;1.20;;;26.20;71.10;;;;;;5065248;28;20227;-87
2022/06/17 10:22:09;;;;;;;3.03;1.10;;;26.30;71.00;;;;;;5073256;28;20193;-84
2022/06/17 10:25:12;;;;;;;2.28;1.30;;;26.40;70.10;;;;;;5047667;28;20195;-88
2022/06/17 10:27:57;;;;;;;1.88;1.10;;;26.50;69.60;;;;;;5079065;28;20572;-84
2022/06/17 10:30:45;;;;;;;2.00;1.30;;;26.60;69.80;;;;;;5059414;28;20259;-82
2022/06/17 10:33:14;;;;;;;3.05;1.30;;;26.70;69.40;;;;;;5065158;28;20173;-88
2022/06/17 10:35:41;;;;;;;1.90;1.30;;;26.80;70.00;;;;;;5076264;28;20173;-78
2022/06/17 10:38:12;;;;;;;2.75;1.40;;;26.90;70.40;;;;;;5073209;28;20244;-77
2022/06/17 10:40:41;;;;;;;2.55;1.10;;;27.00;70.20;;;;;;5084941;28;20202;-79
2022/06/17 10:43:19;;;;;;;1.45;1.20;;;27.10;70.30;;;;;;5072863;28;20228;-80
2022/06/17 10:45:44;;;;;;;4.13;1.25;;;27.30;69.40;;;;;;5067392;28;20196;-78
2022/06/17 10:48:28;;;;;;;2.80;1.17;;;27.50;70.30;;;;;;5070096;28;20173;-88
2022/06/17 10:51:00;;;;;;;3.38;1.30;;;27.70;69.60;;;;;;5065852;28;20176;-84
2022/06/17 10:53:34;;;;;;;5.07;1.40;;;27.90;69.60;;;;;;5067909;28;20180;-83
2022/06/17 10:56:12;;;;;;;1.55;1.20;;;28.00;69.90;;;;;;5089330;28;20263;-82
2022/06/17 10:58:55;;;;;;;1.73;1.15;;;28.10;69.30;;;;;;5066479;28;20185;-80
2022/06/17 11:01:21;;;;;;;1.40;1.20;;;28.40;69.00;;;;;;5067247;28;20195;-85
2022/06/17 11:03:52;;;;;;;3.60;1.30;;;28.50;69.40;;;;;;5071152;28;20174;-81
2022/06/17 11:06:25;;;;;;;2.78;1.50;;;28.60;67.80;;;;;;5072424;28;20173;-84
2022/06/17 11:08:57;;;;;;;3.38;1.20;;;28.80;66.30;;;;;;5067752;28;20259;-77
2022/06/17 11:12:13;;;;;;;3.05;1.50;;;28.90;66.10;;;;;;5071218;28;20180;-78
2022/06/17 11:14:44;;;;;;;2.10;1.30;;;29.10;65.30;;;;;;5069097;28;20314;-80
2022/06/17 11:17:25;;;;;;;1.63;1.30;;;29.20;67.40;;;;;;5072592;28;20177;-84
2022/06/17 11:19:54;;;;;;;1.70;1.00;;;29.40;66.30;;;;;;5068781;28;20269;-87
2022/06/17 11:22:24;;;;;;;1.50;1.25;;;29.40;66.70;;;;;;5078878;28;20329;-81
2022/06/17 11:24:55;;;;;;;2.67;1.20;;;29.50;65.80;;;;;;5070504;28;20290;-80
2022/06/17 11:27:32;;;;;;;1.50;1.20;;;29.70;65.40;;;;;;5070908;28;20207;-80
2022/06/17 11:30:19;;;;;;;2.42;1.10;;;29.80;64.70;;;;;;5072731;28;20238;-85
2022/06/17 11:32:48;;;;;;;2.47;1.10;;;29.90;65.10;;;;;;5072800;28;20207;-78
2022/06/17 11:35:29;;;;;;;2.60;1.00;;;30.10;65.50;;;;;;5074692;28;20180;-83
2022/06/17 11:38:00;;;;;;;3.03;1.20;;;30.20;63.50;;;;;;5060797;28;20184;-79
2022/06/17 11:40:36;;;;;;;3.55;1.20;;;30.30;63.60;;;;;;5071441;28;20195;-72
2022/06/17 11:43:09;;;;;;;1.65;1.30;;;30.40;62.90;;;;;;5069491;28;20199;-83
2022/06/17 11:45:39;;;;;;;1.67;1.30;;;30.50;63.40;;;;;;5074763;28;20196;-81
2022/06/17 11:48:13;;;;;;;1.95;1.20;;;30.70;63.90;;;;;;5087952;28;20221;-81
2022/06/17 11:50:41;;;;;;;3.10;1.10;;;30.80;64.30;;;;;;5074524;28;20204;-78
2022/06/17 11:53:17;;;;;;;3.10;1.30;;;31.00;64.00;;;;;;5069839;28;20266;-77
2022/06/17 11:55:51;;;;;;;2.42;1.30;;;31.10;61.20;;;;;;5068762;28;20218;-82
2022/06/17 11:58:23;;;;;;;1.17;0.95;;;31.30;62.20;;;;;;5068949;28;20180;-83
2022/06/17 12:00:52;;;;;;;2.33;1.27;;;31.40;62.40;;;;;;5070139;28;20204;-77
2022/06/17 12:03:43;;;;;;;2.03;1.13;;;31.60;62.00;;;;;;5071991;28;20192;-74
2022/06/17 12:06:46;;;;;;;3.97;1.27;;;31.80;60.80;;;;;;5072891;28;20643;-82
2022/06/17 12:09:25;;;;;;;2.25;1.35;;;31.90;60.20;;;;;;5076911;28;20180;-80
2022/06/17 12:11:54;;;;;;;1.30;1.00;;;32.10;60.30;;;;;;5067160;28;20233;-78
2022/06/17 12:14:51;;;;;;;1.92;0.93;;;32.20;60.40;;;;;;5074103;28;20203;-79
2022/06/17 12:17:18;;;;;;;1.75;1.17;;;32.30;59.60;;;;;;5086374;28;20217;-80
2022/06/17 12:19:47;;;;;;;1.10;1.00;;;32.50;60.40;;;;;;5064964;28;20208;-81
2022/06/17 12:22:19;;;;;;;1.45;0.85;;;32.60;58.60;;;;;;5077939;28;20196;-77
2022/06/17 12:24:58;;;;;;;2.88;1.00;;;32.50;58.00;;;;;;5069208;28;20207;-77
2022/06/17 12:27:32;;;;;;;1.27;0.90;;;32.60;57.50;;;;;;5075862;28;20204;-79
2022/06/17 12:30:06;;;;;;;2.65;1.15;;;32.70;57.70;;;;;;5074093;28;20403;-77
2022/06/17 12:32:51;;;;;;;1.98;1.30;;;32.80;56.40;;;;;;5070859;28;20180;-80
2022/06/17 12:35:26;;;;;;;2.60;1.20;;;32.80;56.30;;;;;;5061988;28;20196;-81
2022/06/17 12:38:09;;;;;;;1.73;1.00;;;32.90;55.90;;;;;;5071539;28;20203;-82
2022/06/17 12:41:06;;;;;;;1.90;1.20;;;33.00;54.10;;;;;;5065555;28;20189;-83
2022/06/17 12:43:40;;;;;;;2.97;1.27;;;33.10;55.40;;;;;;5016076;28;20270;-84
2022/06/17 12:46:26;;;;;;;4.20;1.30;;;33.20;55.10;;;;;;5040815;28;20202;-75
2022/06/17 12:55:09;;;;;;;2.90;0.90;;;33.40;53.50;;;;;;5068044;28;20210;-76
2022/06/17 12:58:00;;;;;;;1.63;0.90;;;33.50;54.80;;;;;;5070171;28;20198;-79
2022/06/17 13:00:41;;;;;;;1.77;0.90;;;33.60;53.10;;;;;;5066467;28;20267;-79
2022/06/17 13:03:22;;;;;;;0.95;0.80;;;33.70;51.80;;;;;;5067153;28;20208;-73
2022/06/17 13:05:48;;;;;;;0.95;0.80;;;33.70;52.80;;;;;;5070473;28;20176;-79
2022/06/17 13:08:28;;;;;;;1.58;0.88;;;33.70;52.60;;;;;;5071572;28;20191;-75
2022/06/17 13:11:11;;;;;;;2.25;0.93;;;33.70;51.90;;;;;;5070318;28;20331;-79
2022/06/17 13:13:59;;;;;;;1.30;0.95;;;33.70;50.90;;;;;;5080090;28;20192;-77
2022/06/17 13:16:41;;;;;;;1.48;0.95;;;33.70;51.20;;;;;;5070782;28;20208;-78
2022/06/17 13:19:45;;;;;;;1.50;1.30;;;33.70;50.90;;;;;;5068843;28;20172;-78
2022/06/17 13:22:24;;;;;;;1.50;1.20;;;33.70;50.80;;;;;;5071346;28;20207;-80
2022/06/17 13:24:58;;;;;;;1.45;0.98;;;33.80;49.90;;;;;;5063305;28;20169;-76
2022/06/17 13:27:54;;;;;;;0.98;0.88;;;33.80;49.60;;;;;;5070881;28;20214;-75
2022/06/17 13:30:25;;;;;;;1.30;0.88;;;33.80;48.90;;;;;;5074124;28;20177;-76
2022/06/17 13:33:00;;;;;;;2.58;1.00;;;33.80;49.70;;;;;;5059975;28;20184;-78
2022/06/17 13:35:29;;;;;;;1.77;1.10;;;33.80;49.70;;;;;;5068182;28;20199;-76
2022/06/17 13:38:01;;;;;;;1.88;0.90;;;33.90;49.60;;;;;;5063032;28;20200;-76